Time;durP1;ratioP1;P1;durP2;ratioP2;P2;SDS_P1;SDS_P2;PMS_P1;PMS_P2;Temp;Humidity;BMP_temperature;BMP_pressure;BME280_temperature;BME280_humidity;BME280_pressure;Samples;Min_cycle;Max_cycle;Signal;HPM_P1;HPM_P2
2024/04/04 00:01:23;;;;;;;1.50;1.10;;;10.00;98.20;;;;;;4900469;29;20236;-78
2024/04/04 00:03:51;;;;;;;1.50;1.10;;;10.00;98.20;;;;;;4909894;29;20567;-78
2024/04/04 00:06:17;;;;;;;1.50;1.20;;;9.90;98.20;;;;;;4899744;29;20263;-78
2024/04/04 00:08:43;;;;;;;1.50;1.10;;;9.90;98.20;;;;;;4913358;29;20988;-78
2024/04/04 00:11:10;;;;;;;1.57;1.20;;;9.90;98.20;;;;;;4899858;29;20710;-78
2024/04/04 00:13:37;;;;;;;1.50;1.10;;;9.90;98.20;;;;;;4913427;29;20896;-78
2024/04/04 00:16:04;;;;;;;1.50;1.10;;;9.80;98.20;;;;;;4899917;29;20521;-78
2024/04/04 00:18:32;;;;;;;1.50;1.10;;;9.80;98.20;;;;;;4913035;29;21134;-78
2024/04/04 00:20:59;;;;;;;1.50;1.20;;;9.80;98.20;;;;;;4901713;29;20472;-78
2024/04/04 00:23:26;;;;;;;1.50;1.10;;;9.70;98.20;;;;;;4913672;29;20979;-78
2024/04/04 00:25:52;;;;;;;1.50;1.10;;;9.70;98.20;;;;;;4902093;29;20865;-79
2024/04/04 00:28:19;;;;;;;1.57;1.20;;;9.70;98.20;;;;;;4916299;29;20771;-78
2024/04/04 00:30:45;;;;;;;1.50;1.10;;;9.70;98.20;;;;;;4905273;29;20216;-78
2024/04/04 00:33:11;;;;;;;1.50;1.10;;;9.70;98.20;;;;;;4909409;29;20772;-78
2024/04/04 00:35:37;;;;;;;1.50;1.10;;;9.70;98.20;;;;;;4911037;29;20474;-78
2024/04/04 00:38:05;;;;;;;1.50;1.20;;;9.70;98.20;;;;;;4902865;29;20933;-78
2024/04/04 00:40:35;;;;;;;1.60;1.30;;;9.70;98.20;;;;;;4910904;29;20219;-78
2024/04/04 00:43:02;;;;;;;1.50;1.13;;;9.70;98.20;;;;;;4902042;29;20986;-79
2024/04/04 00:45:28;;;;;;;1.50;1.10;;;9.70;98.20;;;;;;4911304;29;20493;-78
2024/04/04 00:47:55;;;;;;;1.50;1.10;;;9.70;98.20;;;;;;4901982;29;20591;-79
2024/04/04 00:50:21;;;;;;;1.50;1.10;;;9.70;98.20;;;;;;4909897;29;20465;-79
2024/04/04 00:52:49;;;;;;;1.50;1.20;;;9.70;98.20;;;;;;4901448;29;20495;-78
2024/04/04 00:55:16;;;;;;;1.50;1.10;;;9.80;98.20;;;;;;4911225;29;20733;-78
2024/04/04 00:57:44;;;;;;;1.50;1.10;;;9.80;98.20;;;;;;4891748;29;20529;-78
2024/04/04 01:00:11;;;;;;;1.50;1.10;;;9.80;98.20;;;;;;4907654;29;20479;-78
2024/04/04 01:02:37;;;;;;;1.53;1.30;;;9.80;98.20;;;;;;4901862;29;20583;-78
2024/04/04 01:05:04;;;;;;;1.50;1.10;;;9.90;98.20;;;;;;4915869;29;21003;-78
2024/04/04 01:07:32;;;;;;;1.50;1.10;;;9.90;98.20;;;;;;4909923;29;21033;-78
2024/04/04 01:10:03;;;;;;;1.53;1.10;;;10.00;98.20;;;;;;4915406;29;20473;-78
2024/04/04 01:12:31;;;;;;;1.53;1.10;;;10.10;98.20;;;;;;4906443;29;20519;-80
2024/04/04 01:14:57;;;;;;;1.50;1.10;;;10.10;98.20;;;;;;4909907;29;20475;-78
2024/04/04 01:17:24;;;;;;;1.50;1.20;;;10.20;98.20;;;;;;4898051;29;21022;-78
2024/04/04 01:19:50;;;;;;;1.50;1.10;;;10.30;98.20;;;;;;4907718;29;20209;-77
2024/04/04 01:22:17;;;;;;;1.50;1.03;;;10.30;98.20;;;;;;4891166;29;20547;-78
2024/04/04 01:24:44;;;;;;;1.50;1.10;;;10.40;98.20;;;;;;4910376;29;20235;-77
2024/04/04 01:27:10;;;;;;;1.50;1.10;;;10.40;98.20;;;;;;4899396;29;20540;-78
2024/04/04 01:29:36;;;;;;;1.50;1.10;;;10.40;98.20;;;;;;4910749;29;20487;-78
2024/04/04 01:32:03;;;;;;;1.50;1.10;;;10.50;98.20;;;;;;4895479;29;20488;-78
2024/04/04 01:34:29;;;;;;;1.50;1.20;;;10.50;98.20;;;;;;4907396;29;20216;-78
2024/04/04 01:36:55;;;;;;;1.53;1.10;;;10.50;98.20;;;;;;4900550;29;20476;-77
2024/04/04 01:39:21;;;;;;;1.50;1.00;;;10.50;98.20;;;;;;4906777;29;20225;-80
2024/04/04 01:41:49;;;;;;;1.50;1.10;;;10.60;98.20;;;;;;4900404;29;20487;-79
2024/04/04 01:44:15;;;;;;;1.50;1.10;;;10.60;98.20;;;;;;4908684;29;20405;-77
2024/04/04 01:46:42;;;;;;;1.50;1.10;;;10.60;98.20;;;;;;4900372;29;20545;-77
2024/04/04 01:49:08;;;;;;;1.50;1.20;;;10.60;98.20;;;;;;4910013;29;20216;-77
2024/04/04 01:51:35;;;;;;;1.50;1.10;;;10.60;98.20;;;;;;4901117;29;20493;-77
2024/04/04 01:54:02;;;;;;;1.50;1.10;;;10.70;98.20;;;;;;4909389;29;20690;-77
2024/04/04 01:56:29;;;;;;;1.50;1.10;;;10.70;98.20;;;;;;4901287;29;21245;-76
2024/04/04 01:58:56;;;;;;;1.50;1.07;;;10.70;98.20;;;;;;4902823;29;20483;-77
2024/04/04 02:01:23;;;;;;;1.50;1.10;;;10.70;98.20;;;;;;4899469;29;20575;-77
2024/04/04 02:03:49;;;;;;;1.50;1.10;;;10.70;98.20;;;;;;4907076;29;20475;-78
2024/04/04 02:06:15;;;;;;;1.50;1.10;;;10.70;98.20;;;;;;4898769;29;20479;-77
2024/04/04 02:08:41;;;;;;;1.50;1.10;;;10.70;98.20;;;;;;4908045;29;20221;-77
2024/04/04 02:11:08;;;;;;;1.50;1.00;;;10.70;98.20;;;;;;4898803;29;20488;-77
2024/04/04 02:13:34;;;;;;;1.50;1.10;;;10.70;98.20;;;;;;4908160;29;20219;-76
2024/04/04 02:16:02;;;;;;;1.50;1.10;;;10.70;98.20;;;;;;4898937;29;20465;-76
2024/04/04 02:18:28;;;;;;;1.50;1.10;;;10.70;98.20;;;;;;4907589;29;20708;-76
2024/04/04 02:20:55;;;;;;;1.50;1.00;;;10.70;98.20;;;;;;4899391;29;20520;-77
2024/04/04 02:23:20;;;;;;;1.50;1.10;;;10.70;98.20;;;;;;4943700;23;20256;-79
2024/04/04 02:25:47;;;;;;;1.53;1.20;;;10.60;98.20;;;;;;4893583;29;20501;-79
2024/04/04 02:28:13;;;;;;;1.50;1.20;;;10.60;98.20;;;;;;4931652;29;20228;-79
2024/04/04 02:30:40;;;;;;;1.50;1.10;;;10.60;98.20;;;;;;4897383;29;20474;-80
2024/04/04 02:33:07;;;;;;;1.50;1.10;;;10.60;98.20;;;;;;4919326;29;20300;-79
2024/04/04 02:35:34;;;;;;;1.50;1.10;;;10.60;98.20;;;;;;4895340;29;20484;-80
2024/04/04 02:38:01;;;;;;;1.50;1.10;;;10.60;98.20;;;;;;4917150;29;20483;-79
2024/04/04 02:40:28;;;;;;;1.50;1.03;;;10.60;98.20;;;;;;4899222;29;20471;-78
2024/04/04 02:42:54;;;;;;;1.50;1.10;;;10.60;98.20;;;;;;4917109;29;20494;-79
2024/04/04 02:45:22;;;;;;;1.50;1.13;;;10.60;98.20;;;;;;4898395;29;20884;-79
2024/04/04 02:47:48;;;;;;;1.50;1.00;;;10.60;98.20;;;;;;4920056;29;20235;-79
2024/04/04 02:50:16;;;;;;;1.50;1.20;;;10.60;98.20;;;;;;4899083;29;20479;-78
2024/04/04 02:52:42;;;;;;;1.50;1.00;;;10.60;98.20;;;;;;4921328;29;20491;-77
2024/04/04 02:55:09;;;;;;;1.50;1.10;;;10.60;98.20;;;;;;4901070;29;20509;-77
2024/04/04 02:57:38;;;;;;;1.50;1.10;;;10.60;98.20;;;;;;4913607;29;20259;-76
2024/04/04 03:00:08;;;;;;;1.50;1.10;;;10.60;98.20;;;;;;4899543;29;20481;-76
2024/04/04 03:02:34;;;;;;;1.50;1.10;;;10.50;98.20;;;;;;4912919;29;20515;-78
2024/04/04 03:05:01;;;;;;;1.50;1.10;;;10.50;98.20;;;;;;4901354;29;20897;-77
2024/04/04 03:07:28;;;;;;;1.50;1.10;;;10.50;98.20;;;;;;4914081;29;20234;-78
2024/04/04 03:09:55;;;;;;;1.50;1.10;;;10.50;98.20;;;;;;4901275;29;20509;-77
2024/04/04 03:12:22;;;;;;;1.50;1.10;;;10.50;98.20;;;;;;4916413;29;20634;-77
2024/04/04 03:14:47;;;;;;;1.50;1.10;;;10.50;98.20;;;;;;4907853;29;20466;-77
2024/04/04 03:17:14;;;;;;;1.50;1.10;;;10.50;98.20;;;;;;4916842;29;20558;-77
2024/04/04 03:19:40;;;;;;;1.50;1.03;;;10.50;98.20;;;;;;4913515;29;20593;-78
2024/04/04 03:22:07;;;;;;;1.50;1.10;;;10.50;98.20;;;;;;4916457;29;20563;-77
2024/04/04 03:24:36;;;;;;;1.50;1.10;;;10.50;98.20;;;;;;4917371;29;20272;-78
2024/04/04 03:27:02;;;;;;;1.50;1.10;;;10.50;98.20;;;;;;4917807;29;22460;-79
2024/04/04 03:29:28;;;;;;;1.50;1.00;;;10.50;98.20;;;;;;4916263;29;20480;-79
2024/04/04 03:31:55;;;;;;;1.50;1.10;;;10.50;98.20;;;;;;4911297;29;20571;-79
2024/04/04 03:34:21;;;;;;;1.50;1.10;;;10.50;98.20;;;;;;4919449;29;20205;-79
2024/04/04 03:36:48;;;;;;;1.50;1.10;;;10.50;98.20;;;;;;4910355;29;20598;-79
2024/04/04 03:39:15;;;;;;;1.50;1.10;;;10.60;98.20;;;;;;4916911;29;20219;-78
2024/04/04 03:41:43;;;;;;;1.50;1.20;;;10.60;98.20;;;;;;4903278;29;20491;-78
2024/04/04 03:44:10;;;;;;;1.50;1.10;;;10.60;98.20;;;;;;4915126;29;20583;-77
2024/04/04 03:46:36;;;;;;;1.50;1.10;;;10.70;98.20;;;;;;4902181;29;20582;-77
2024/04/04 03:49:04;;;;;;;1.50;1.10;;;10.70;98.20;;;;;;4915729;29;20474;-78
2024/04/04 03:51:30;;;;;;;1.50;1.10;;;10.70;98.20;;;;;;4902975;29;20243;-77
2024/04/04 03:53:56;;;;;;;1.50;1.00;;;10.80;98.20;;;;;;4916825;29;20489;-78
2024/04/04 03:56:22;;;;;;;1.50;1.10;;;10.80;98.20;;;;;;4901312;29;20231;-76
2024/04/04 03:58:50;;;;;;;1.50;1.10;;;10.80;98.20;;;;;;4922641;29;20495;-78
2024/04/04 04:01:16;;;;;;;1.50;1.10;;;10.90;98.20;;;;;;4896998;29;20365;-77
2024/04/04 04:03:43;;;;;;;1.50;1.10;;;10.90;98.20;;;;;;4924672;29;20565;-77
2024/04/04 04:06:10;;;;;;;1.50;1.10;;;10.90;98.20;;;;;;4896375;29;20307;-77
2024/04/04 04:08:35;;;;;;;1.50;1.07;;;10.90;98.20;;;;;;4925427;29;20486;-77
2024/04/04 04:11:02;;;;;;;1.50;1.10;;;10.90;98.20;;;;;;4896943;29;20501;-78
2024/04/04 04:13:28;;;;;;;1.50;1.30;;;10.90;98.20;;;;;;4926921;29;20336;-78
2024/04/04 04:15:57;;;;;;;1.50;1.00;;;11.00;98.20;;;;;;4895272;29;20544;-77
2024/04/04 04:18:23;;;;;;;1.50;1.10;;;11.00;98.20;;;;;;4929443;28;20464;-77
2024/04/04 04:23:34;;;;;;;1.50;1.10;;;11.00;98.20;;;;;;4929467;29;20247;-80
2024/04/04 04:26:01;;;;;;;1.50;1.20;;;11.00;98.20;;;;;;4898406;29;20493;-78
2024/04/04 04:28:27;;;;;;;1.50;1.10;;;11.10;98.20;;;;;;4928553;29;20468;-80
2024/04/04 04:30:54;;;;;;;1.50;1.20;;;11.10;98.20;;;;;;4892106;29;20521;-78
2024/04/04 04:33:21;;;;;;;1.50;1.10;;;11.10;98.20;;;;;;4927676;29;20235;-78
2024/04/04 04:35:48;;;;;;;1.50;1.20;;;11.10;98.20;;;;;;4892749;29;20480;-78
2024/04/04 04:38:14;;;;;;;1.50;1.10;;;11.10;98.20;;;;;;4929922;29;21591;-79
2024/04/04 04:40:43;;;;;;;1.50;1.10;;;11.20;98.20;;;;;;4905212;29;20475;-79
2024/04/04 04:43:09;;;;;;;1.50;1.10;;;11.20;98.20;;;;;;4920267;29;20495;-78
2024/04/04 04:45:35;;;;;;;1.50;1.10;;;11.20;98.20;;;;;;4907794;29;20488;-81
2024/04/04 04:48:02;;;;;;;1.50;1.10;;;11.30;98.20;;;;;;4918308;29;20484;-77
2024/04/04 04:50:30;;;;;;;1.50;1.10;;;11.30;98.20;;;;;;4901104;29;20480;-79
2024/04/04 04:52:56;;;;;;;1.50;1.10;;;11.40;98.20;;;;;;4919485;29;20671;-76
2024/04/04 04:55:23;;;;;;;1.50;1.10;;;11.40;98.20;;;;;;4898440;29;20648;-79
2024/04/04 04:57:48;;;;;;;9.93;7.20;;;11.40;98.20;;;;;;4920653;29;20227;-79
2024/04/04 05:00:15;;;;;;;1.50;1.10;;;11.40;98.20;;;;;;4906545;29;20484;-80
2024/04/04 05:02:41;;;;;;;1.50;1.10;;;11.50;98.20;;;;;;4917623;29;20331;-79
2024/04/04 05:05:14;;;;;;;1.50;1.10;;;11.50;98.20;;;;;;4904897;29;20532;-80
2024/04/04 05:07:42;;;;;;;1.50;1.00;;;11.50;98.20;;;;;;4919221;29;20695;-78
2024/04/04 05:10:09;;;;;;;1.50;1.10;;;11.60;98.20;;;;;;4904356;29;20546;-79
2024/04/04 05:12:35;;;;;;;1.50;1.10;;;11.60;98.20;;;;;;4914273;29;20483;-80
2024/04/04 05:15:01;;;;;;;1.50;1.10;;;11.60;98.20;;;;;;4904424;29;20525;-79
2024/04/04 05:17:27;;;;;;;1.50;1.03;;;11.70;98.20;;;;;;4913650;28;20483;-78
2024/04/04 05:19:54;;;;;;;1.50;1.10;;;11.70;98.20;;;;;;4904708;29;20568;-79
2024/04/04 05:22:20;;;;;;;1.50;1.10;;;11.80;98.20;;;;;;4914562;29;20726;-77
2024/04/04 05:24:48;;;;;;;1.60;1.20;;;11.80;98.20;;;;;;4912388;29;20831;-78
2024/04/04 05:27:14;;;;;;;1.50;1.13;;;11.80;98.20;;;;;;4913796;29;20672;-78
2024/04/04 05:29:42;;;;;;;1.50;1.10;;;11.80;98.20;;;;;;4911308;28;20474;-78
2024/04/04 05:32:08;;;;;;;1.50;1.10;;;11.90;98.20;;;;;;4917882;29;20245;-77
2024/04/04 05:34:35;;;;;;;1.50;1.00;;;11.90;98.20;;;;;;4907599;28;20552;-77
2024/04/04 05:37:01;;;;;;;1.50;1.10;;;11.90;98.20;;;;;;4909237;29;20228;-78
2024/04/04 05:39:28;;;;;;;1.53;1.10;;;11.90;98.20;;;;;;4908288;29;20529;-77
2024/04/04 05:41:55;;;;;;;1.50;1.00;;;11.90;98.20;;;;;;4903387;29;20498;-78
2024/04/04 05:44:22;;;;;;;1.50;1.00;;;11.90;98.20;;;;;;4909639;29;20905;-77
2024/04/04 05:46:48;;;;;;;1.50;1.10;;;11.90;98.20;;;;;;4905715;29;20542;-77
2024/04/04 05:49:15;;;;;;;1.50;1.00;;;11.90;98.20;;;;;;4910290;29;20480;-77
2024/04/04 05:51:41;;;;;;;1.50;1.10;;;11.90;98.20;;;;;;4900220;29;20602;-77
2024/04/04 05:54:08;;;;;;;1.50;1.00;;;11.90;98.20;;;;;;4909912;29;20504;-77
2024/04/04 05:56:33;;;;;;;1.50;1.13;;;11.90;98.20;;;;;;4897934;29;20238;-77
2024/04/04 05:59:02;;;;;;;1.50;1.00;;;11.90;98.20;;;;;;4913328;29;21619;-79
2024/04/04 06:01:27;;;;;;;1.50;1.00;;;11.90;98.20;;;;;;4896144;29;20228;-78
2024/04/04 06:03:54;;;;;;;1.50;1.03;;;11.90;98.20;;;;;;4914426;29;20499;-77
2024/04/04 06:06:20;;;;;;;1.50;1.00;;;11.90;98.20;;;;;;4896855;29;20617;-77
2024/04/04 06:08:47;;;;;;;1.50;1.10;;;11.90;98.20;;;;;;4915600;28;20529;-77
2024/04/04 06:11:13;;;;;;;1.50;1.00;;;11.90;98.20;;;;;;4895415;29;20633;-76
2024/04/04 06:13:40;;;;;;;1.50;1.10;;;11.90;98.20;;;;;;4919859;29;20489;-77
2024/04/04 06:16:07;;;;;;;1.50;1.10;;;11.90;98.20;;;;;;4890485;29;20553;-77
2024/04/04 06:18:34;;;;;;;1.53;1.10;;;11.90;98.20;;;;;;4921323;29;20976;-76
2024/04/04 06:20:59;;;;;;;1.50;1.00;;;11.90;98.20;;;;;;4896607;29;20469;-77
2024/04/04 06:23:28;;;;;;;1.53;1.10;;;12.00;98.20;;;;;;4923326;29;20503;-76
2024/04/04 06:25:54;;;;;;;1.50;1.10;;;12.00;98.20;;;;;;4889316;29;20226;-76
2024/04/04 06:28:21;;;;;;;1.50;1.10;;;12.00;98.20;;;;;;4923959;29;20472;-77
2024/04/04 06:30:47;;;;;;;1.53;1.00;;;12.00;98.20;;;;;;4895125;29;20560;-76
2024/04/04 06:33:15;;;;;;;1.50;1.10;;;12.00;98.20;;;;;;4925036;29;20584;-76
2024/04/04 06:35:41;;;;;;;1.50;1.00;;;12.00;98.20;;;;;;4909869;29;20222;-76
2024/04/04 06:38:08;;;;;;;1.53;1.10;;;12.00;98.20;;;;;;4926517;29;20574;-75
2024/04/04 06:40:38;;;;;;;1.50;1.03;;;12.10;98.20;;;;;;4895540;29;20220;-76
2024/04/04 06:43:05;;;;;;;1.50;1.10;;;12.10;98.20;;;;;;4906979;29;20491;-76
2024/04/04 06:45:31;;;;;;;1.50;1.10;;;12.10;98.20;;;;;;4898412;29;20462;-76
2024/04/04 06:47:58;;;;;;;1.50;1.00;;;12.10;98.20;;;;;;4908249;29;20483;-76
2024/04/04 06:50:27;;;;;;;1.50;1.10;;;12.10;98.20;;;;;;4898000;29;20273;-77
2024/04/04 06:52:53;;;;;;;1.93;1.63;;;12.10;98.20;;;;;;4906319;29;20591;-77
2024/04/04 06:55:20;;;;;;;1.50;1.00;;;12.10;98.20;;;;;;4894302;29;20477;-76
2024/04/04 06:57:47;;;;;;;1.60;1.10;;;12.10;98.20;;;;;;4914372;29;20630;-76
2024/04/04 07:00:15;;;;;;;1.53;1.10;;;12.10;98.20;;;;;;4898463;29;20560;-77
2024/04/04 07:02:42;;;;;;;1.50;1.00;;;12.10;98.20;;;;;;4907155;29;20492;-76
2024/04/04 07:05:09;;;;;;;1.53;1.10;;;12.10;98.20;;;;;;4899638;29;20891;-76
2024/04/04 07:07:37;;;;;;;1.50;1.10;;;12.10;98.20;;;;;;4903802;29;20288;-76
2024/04/04 07:10:05;;;;;;;1.50;1.10;;;12.10;98.20;;;;;;4898367;29;20477;-76
2024/04/04 07:12:31;;;;;;;1.50;1.00;;;12.20;98.20;;;;;;4905771;29;20484;-76
2024/04/04 07:14:58;;;;;;;1.50;1.00;;;12.20;98.20;;;;;;4900019;29;20571;-76
2024/04/04 07:17:24;;;;;;;1.50;1.10;;;12.20;98.20;;;;;;4911475;29;20322;-77
2024/04/04 07:19:53;;;;;;;1.53;1.20;;;12.20;98.20;;;;;;4907896;29;20473;-76
2024/04/04 07:22:19;;;;;;;1.50;1.00;;;12.30;98.20;;;;;;4905386;29;20503;-76
2024/04/04 07:24:47;;;;;;;1.50;1.10;;;12.30;98.20;;;;;;4901143;29;20473;-76
2024/04/04 07:27:13;;;;;;;1.50;1.10;;;12.30;98.20;;;;;;4910295;29;20239;-76
2024/04/04 07:29:42;;;;;;;1.53;1.10;;;12.30;98.20;;;;;;4909556;29;21003;-75
2024/04/04 07:32:08;;;;;;;1.50;1.03;;;12.30;98.20;;;;;;4901376;29;20346;-77
2024/04/04 07:34:35;;;;;;;1.70;1.50;;;12.30;98.20;;;;;;4903322;29;20465;-78
2024/04/04 07:37:02;;;;;;;1.50;1.00;;;12.30;98.20;;;;;;4908635;29;20880;-77
2024/04/04 07:39:30;;;;;;;1.50;1.03;;;12.30;98.20;;;;;;4911026;29;20477;-77
2024/04/04 07:41:57;;;;;;;1.50;1.00;;;12.30;98.20;;;;;;4901656;29;20483;-76
2024/04/04 07:44:24;;;;;;;1.50;1.10;;;12.40;98.20;;;;;;4910418;29;20477;-77
2024/04/04 07:46:51;;;;;;;1.53;1.10;;;12.40;98.20;;;;;;4914962;29;20526;-77
2024/04/04 07:49:18;;;;;;;1.50;1.00;;;12.40;98.20;;;;;;4917622;29;20480;-77
2024/04/04 07:51:45;;;;;;;1.50;1.00;;;12.40;98.20;;;;;;4904302;29;20492;-76
2024/04/04 07:54:11;;;;;;;1.50;1.00;;;12.50;98.20;;;;;;4911248;29;20458;-76
2024/04/04 07:56:38;;;;;;;1.50;1.00;;;12.50;98.20;;;;;;4902767;29;20499;-77
2024/04/04 07:59:05;;;;;;;1.50;1.00;;;12.50;98.20;;;;;;4910670;29;20224;-77
2024/04/04 08:01:32;;;;;;;1.50;1.00;;;12.50;98.20;;;;;;4903197;29;20483;-76
2024/04/04 08:03:58;;;;;;;1.50;1.00;;;12.50;98.20;;;;;;4914522;28;20478;-78
2024/04/04 08:06:25;;;;;;;1.50;1.00;;;12.50;98.20;;;;;;4901098;29;20522;-78
2024/04/04 08:08:51;;;;;;;1.53;1.00;;;12.60;98.20;;;;;;4912053;29;20749;-77
2024/04/04 08:11:18;;;;;;;1.50;1.00;;;12.60;98.20;;;;;;4894546;29;20476;-77
2024/04/04 08:13:44;;;;;;;1.50;1.10;;;12.60;98.20;;;;;;4915937;29;20497;-77
2024/04/04 08:16:13;;;;;;;1.53;1.10;;;12.60;98.20;;;;;;4897694;29;20520;-78
2024/04/04 08:18:39;;;;;;;1.53;1.00;;;12.60;98.20;;;;;;4914668;29;20620;-77
2024/04/04 08:21:07;;;;;;;1.50;1.10;;;12.60;98.20;;;;;;4894454;29;20497;-76
2024/04/04 08:23:33;;;;;;;1.50;1.00;;;12.60;98.20;;;;;;4924669;29;20237;-78
2024/04/04 08:26:00;;;;;;;1.50;1.10;;;12.60;98.20;;;;;;4898758;29;20859;-77
2024/04/04 08:28:27;;;;;;;1.53;1.00;;;12.60;98.20;;;;;;4925247;29;20480;-77
2024/04/04 08:31:01;;;;;;;1.50;1.00;;;12.60;98.20;;;;;;4890688;29;20482;-76
2024/04/04 08:33:29;;;;;;;1.50;1.00;;;12.70;98.20;;;;;;4914691;29;20555;-77
2024/04/04 08:35:56;;;;;;;1.50;1.10;;;12.70;98.20;;;;;;4885340;29;20698;-78
2024/04/04 08:38:22;;;;;;;1.50;1.00;;;12.70;98.20;;;;;;4919298;29;20478;-76
2024/04/04 08:40:49;;;;;;;1.60;1.10;;;12.70;98.20;;;;;;4890534;29;20990;-76
2024/04/04 08:43:16;;;;;;;1.50;1.00;;;12.80;98.20;;;;;;4922801;29;20489;-77
2024/04/04 08:45:47;;;;;;;1.50;1.00;;;12.90;98.20;;;;;;4897703;29;20478;-77
2024/04/04 08:48:15;;;;;;;1.50;1.00;;;12.90;98.20;;;;;;4914486;29;20584;-77
2024/04/04 08:50:45;;;;;;;1.60;1.33;;;13.00;98.20;;;;;;4894978;29;20482;-76
2024/04/04 08:53:12;;;;;;;1.50;1.00;;;13.10;98.20;;;;;;4913884;29;20899;-79
2024/04/04 08:55:39;;;;;;;1.53;1.00;;;13.20;98.20;;;;;;4900192;29;20536;-79
2024/04/04 08:58:07;;;;;;;1.50;0.90;;;13.30;98.20;;;;;;4914844;28;21052;-78
2024/04/04 09:00:34;;;;;;;1.50;1.03;;;13.40;98.20;;;;;;4897493;29;20476;-77
2024/04/04 09:03:00;;;;;;;1.60;1.10;;;13.50;98.20;;;;;;4914849;28;20491;-78
2024/04/04 09:05:27;;;;;;;1.50;1.00;;;13.60;98.20;;;;;;4899608;29;20469;-77
2024/04/04 09:07:54;;;;;;;1.50;1.00;;;13.60;98.20;;;;;;4914547;29;20231;-79
2024/04/04 09:10:21;;;;;;;1.50;1.00;;;13.60;98.20;;;;;;4896922;29;20841;-78
2024/04/04 09:12:47;;;;;;;1.53;1.00;;;13.70;98.20;;;;;;4915750;29;20631;-78
2024/04/04 09:15:14;;;;;;;1.50;1.00;;;13.60;98.20;;;;;;4897719;29;20876;-80
2024/04/04 09:17:39;;;;;;;1.60;1.10;;;13.60;98.20;;;;;;4915066;29;20483;-79
2024/04/04 09:20:10;;;;;;;1.50;1.00;;;13.60;98.20;;;;;;4900995;29;20518;-78
2024/04/04 09:22:38;;;;;;;1.57;1.00;;;13.50;98.20;;;;;;4912974;29;20476;-78
2024/04/04 09:25:09;;;;;;;1.50;1.00;;;13.60;98.20;;;;;;4899015;29;20470;-80
2024/04/04 09:27:35;;;;;;;1.50;1.00;;;13.60;98.20;;;;;;4911720;29;20488;-79
2024/04/04 09:30:06;;;;;;;1.50;1.00;;;13.70;98.20;;;;;;4899706;29;20491;-80
2024/04/04 09:32:32;;;;;;;1.50;1.00;;;13.70;98.20;;;;;;4905593;29;20515;-79
2024/04/04 09:35:01;;;;;;;1.50;1.00;;;13.80;98.20;;;;;;4899691;28;20477;-78
2024/04/04 09:37:28;;;;;;;1.50;1.00;;;13.90;98.20;;;;;;4911001;29;20539;-79
2024/04/04 09:39:56;;;;;;;1.50;1.00;;;14.00;98.20;;;;;;4906671;29;20891;-80
2024/04/04 09:42:28;;;;;;;1.53;1.00;;;14.10;98.20;;;;;;4909714;29;20484;-81
2024/04/04 09:44:55;;;;;;;1.60;1.10;;;14.20;98.20;;;;;;4901630;29;20474;-81
2024/04/04 09:47:21;;;;;;;1.50;1.00;;;14.40;98.20;;;;;;4899524;29;20563;-82
2024/04/04 09:49:52;;;;;;;1.53;0.97;;;14.50;98.20;;;;;;4901570;29;20479;-81
2024/04/04 09:52:19;;;;;;;1.60;1.00;;;14.70;98.20;;;;;;4904502;29;20487;-81
2024/04/04 09:54:46;;;;;;;1.50;1.00;;;14.90;98.20;;;;;;4904795;29;20469;-81
2024/04/04 09:57:13;;;;;;;1.50;1.00;;;15.00;98.20;;;;;;4905215;29;20492;-80
2024/04/04 09:59:41;;;;;;;1.60;1.10;;;15.00;98.20;;;;;;4905809;29;20481;-81
2024/04/04 10:02:07;;;;;;;1.53;0.90;;;15.10;98.20;;;;;;4903526;29;20607;-80
2024/04/04 10:04:35;;;;;;;1.57;1.00;;;15.00;98.20;;;;;;4901408;29;20588;-81
2024/04/04 10:07:01;;;;;;;1.57;1.00;;;15.00;98.20;;;;;;4902829;29;20628;-81
2024/04/04 10:09:37;;;;;;;1.50;1.00;;;15.00;98.20;;;;;;4904414;29;20614;-81
2024/04/04 10:12:08;;;;;;;1.50;1.00;;;14.80;98.20;;;;;;4903443;29;20487;-82
2024/04/04 10:14:35;;;;;;;1.53;1.00;;;14.80;98.20;;;;;;4902200;29;20473;-81
2024/04/04 10:17:05;;;;;;;1.50;1.00;;;14.80;98.20;;;;;;4903086;29;20557;-80
2024/04/04 10:19:36;;;;;;;1.50;1.00;;;14.70;98.20;;;;;;4900074;29;20932;-80
2024/04/04 10:22:02;;;;;;;1.53;0.90;;;14.80;98.20;;;;;;4899631;29;20479;-81
2024/04/04 10:24:30;;;;;;;1.50;1.00;;;14.80;98.20;;;;;;4903407;29;20862;-82
2024/04/04 10:26:59;;;;;;;1.50;0.90;;;14.90;98.20;;;;;;4899909;29;20242;-81
2024/04/04 10:29:30;;;;;;;1.50;1.00;;;14.90;98.20;;;;;;4903495;29;20477;-80
2024/04/04 10:31:56;;;;;;;1.53;1.00;;;14.90;98.20;;;;;;4899278;28;20488;-82
2024/04/04 10:34:24;;;;;;;1.50;1.00;;;14.90;98.20;;;;;;4906023;29;20469;-81
2024/04/04 10:36:50;;;;;;;1.50;1.00;;;14.90;98.20;;;;;;4901900;29;20239;-81
2024/04/04 10:39:18;;;;;;;1.50;0.90;;;14.90;98.20;;;;;;4908799;29;20472;-81
2024/04/04 10:41:46;;;;;;;1.50;1.00;;;14.90;98.20;;;;;;4899353;29;20232;-81
2024/04/04 10:44:14;;;;;;;1.50;0.97;;;15.00;98.20;;;;;;4910417;29;20473;-80
2024/04/04 10:46:45;;;;;;;1.50;0.93;;;15.10;98.20;;;;;;4902582;29;20491;-79
2024/04/04 10:49:13;;;;;;;1.53;1.00;;;15.40;98.20;;;;;;4911546;29;20473;-82
2024/04/04 10:51:45;;;;;;;1.57;1.00;;;15.70;98.20;;;;;;4900916;29;20487;-80
2024/04/04 10:54:13;;;;;;;1.50;0.90;;;15.90;98.20;;;;;;4914845;29;20473;-82
2024/04/04 10:56:39;;;;;;;1.50;0.90;;;16.00;98.20;;;;;;4900601;29;20480;-80
2024/04/04 10:59:06;;;;;;;1.53;1.00;;;16.10;98.20;;;;;;4914820;29;20473;-82
2024/04/04 11:01:32;;;;;;;1.50;0.97;;;16.10;98.20;;;;;;4900029;29;21074;-82
2024/04/04 11:04:00;;;;;;;1.57;0.90;;;16.10;98.20;;;;;;4918717;29;21045;-81
2024/04/04 11:06:27;;;;;;;1.57;0.90;;;16.10;98.20;;;;;;4901508;29;20588;-82
2024/04/04 11:08:56;;;;;;;1.50;1.00;;;16.00;98.20;;;;;;4918028;29;20497;-80
2024/04/04 11:11:23;;;;;;;1.60;1.10;;;16.00;98.20;;;;;;4897841;28;20478;-82
2024/04/04 11:13:51;;;;;;;1.50;1.00;;;15.90;98.20;;;;;;4920083;29;20497;-82
2024/04/04 11:16:19;;;;;;;1.50;0.97;;;15.90;98.20;;;;;;4898124;29;20534;-80
2024/04/04 11:18:45;;;;;;;1.50;1.00;;;15.90;98.20;;;;;;4921454;29;20488;-84
2024/04/04 11:21:11;;;;;;;1.50;1.00;;;16.00;98.20;;;;;;4895372;29;20471;-84
2024/04/04 11:23:38;;;;;;;1.50;1.00;;;15.90;98.20;;;;;;4922337;29;20536;-81
2024/04/04 11:26:06;;;;;;;1.50;1.00;;;15.80;98.20;;;;;;4896090;29;20308;-81
2024/04/04 11:28:33;;;;;;;1.50;1.00;;;15.80;98.20;;;;;;4925507;29;20495;-83
2024/04/04 11:30:58;;;;;;;1.57;1.00;;;15.70;98.20;;;;;;4892060;29;20955;-80
2024/04/04 11:33:27;;;;;;;1.50;1.00;;;15.60;98.20;;;;;;4930501;29;20489;-81
2024/04/04 11:35:55;;;;;;;1.50;1.00;;;15.40;98.20;;;;;;4899681;29;20213;-79
2024/04/04 11:38:21;;;;;;;1.50;0.90;;;15.10;98.20;;;;;;4934582;29;20958;-82
2024/04/04 11:40:48;;;;;;;1.50;1.00;;;14.90;98.20;;;;;;4897208;29;20496;-80
2024/04/04 11:43:16;;;;;;;1.53;1.10;;;14.70;98.20;;;;;;4929407;29;20493;-81
2024/04/04 11:45:42;;;;;;;1.50;1.00;;;14.40;98.20;;;;;;4901293;29;20504;-81
2024/04/04 11:48:09;;;;;;;1.50;1.00;;;14.20;98.20;;;;;;4922508;29;20992;-83
2024/04/04 11:50:36;;;;;;;1.50;1.10;;;14.00;98.20;;;;;;4899881;29;20474;-82
2024/04/04 11:53:03;;;;;;;1.50;1.00;;;13.90;98.20;;;;;;4916473;29;20491;-79
2024/04/04 11:55:29;;;;;;;1.50;1.00;;;13.80;98.20;;;;;;4897607;29;20474;-81
2024/04/04 11:57:57;;;;;;;1.53;1.00;;;13.70;98.20;;;;;;4915074;29;20488;-82
2024/04/04 12:00:25;;;;;;;1.50;1.00;;;13.60;98.20;;;;;;4896370;29;20538;-82
2024/04/04 12:02:52;;;;;;;1.50;1.10;;;13.60;98.20;;;;;;4917386;29;20579;-81
2024/04/04 12:05:17;;;;;;;1.50;1.00;;;13.50;98.20;;;;;;4895492;29;20477;-82
2024/04/04 12:07:45;;;;;;;1.50;1.00;;;13.50;98.20;;;;;;4913995;29;20499;-81
2024/04/04 12:10:14;;;;;;;1.50;1.00;;;13.40;98.20;;;;;;4908633;29;20285;-80
2024/04/04 12:12:41;;;;;;;1.50;1.00;;;13.40;98.20;;;;;;4925438;29;20483;-78
2024/04/04 12:15:08;;;;;;;1.50;1.00;;;13.30;98.20;;;;;;4901809;29;20470;-79
2024/04/04 12:17:38;;;;;;;1.50;0.97;;;13.10;98.20;;;;;;4921685;29;20483;-80
2024/04/04 12:20:08;;;;;;;1.50;1.00;;;13.10;98.20;;;;;;4907726;29;20493;-80
2024/04/04 12:22:36;;;;;;;1.50;1.00;;;13.00;98.20;;;;;;4918337;29;20722;-79
2024/04/04 12:25:03;;;;;;;1.50;1.10;;;13.00;98.20;;;;;;4907239;29;20501;-81
2024/04/04 12:27:28;;;;;;;1.50;1.00;;;13.00;98.20;;;;;;4916975;29;20515;-79
2024/04/04 12:29:55;;;;;;;1.50;1.00;;;13.00;98.20;;;;;;4905897;29;20473;-81
2024/04/04 12:32:21;;;;;;;1.50;1.00;;;13.00;98.20;;;;;;4913626;29;20238;-83
2024/04/04 12:34:49;;;;;;;1.50;1.00;;;13.00;98.20;;;;;;4901841;29;20564;-82
2024/04/04 12:37:15;;;;;;;1.50;1.10;;;13.00;98.20;;;;;;4908825;29;20232;-83
2024/04/04 12:39:42;;;;;;;1.50;1.00;;;13.00;98.20;;;;;;4909072;29;20466;-83
2024/04/04 12:42:07;;;;;;;1.50;1.00;;;13.00;98.20;;;;;;4907048;29;20588;-82
2024/04/04 12:44:34;;;;;;;1.50;1.00;;;13.10;98.20;;;;;;4905480;29;20774;-83
2024/04/04 12:47:00;;;;;;;1.50;1.00;;;13.10;98.20;;;;;;4906824;29;20622;-83
2024/04/04 12:49:28;;;;;;;1.50;1.00;;;13.30;98.20;;;;;;4910530;29;20711;-82